sensor_id;sensor_type;location;lat;lon;timestamp;temperature;humidity
6018;DHT22;3037;51.068;13.780;2022-07-25T00:02:10;19.30;1.00
6018;DHT22;3037;51.068;13.780;2022-07-25T00:04:36;19.30;1.00
6018;DHT22;3037;51.068;13.780;2022-07-25T00:07:01;19.30;1.00
6018;DHT22;3037;51.068;13.780;2022-07-25T00:09:27;19.20;1.00
6018;DHT22;3037;51.068;13.780;2022-07-25T00:11:52;19.20;1.00
6018;DHT22;3037;51.068;13.780;2022-07-25T00:14:18;19.20;1.00
6018;DHT22;3037;51.068;13.780;2022-07-25T00:16:43;19.20;1.00
6018;DHT22;3037;51.068;13.780;2022-07-25T00:19:09;19.10;1.00
6018;DHT22;3037;51.068;13.780;2022-07-25T00:21:34;19.10;1.00
6018;DHT22;3037;51.068;13.780;2022-07-25T00:24:00;19.00;1.00
6018;DHT22;3037;51.068;13.780;2022-07-25T00:26:26;19.00;1.00
6018;DHT22;3037;51.068;13.780;2022-07-25T00:28:51;18.90;1.00
6018;DHT22;3037;51.068;13.780;2022-07-25T00:31:17;18.80;1.00
6018;DHT22;3037;51.068;13.780;2022-07-25T00:33:42;18.80;1.00
6018;DHT22;3037;51.068;13.780;2022-07-25T00:36:08;18.70;1.00
6018;DHT22;3037;51.068;13.780;2022-07-25T00:38:34;18.60;1.00
6018;DHT22;3037;51.068;13.780;2022-07-25T00:41:01;18.50;1.00
6018;DHT22;3037;51.068;13.780;2022-07-25T00:43:27;18.50;1.00
6018;DHT22;3037;51.068;13.780;2022-07-25T00:45:52;18.50;1.00
6018;DHT22;3037;51.068;13.780;2022-07-25T00:48:18;18.50;1.00
6018;DHT22;3037;51.068;13.780;2022-07-25T00:50:44;18.40;1.00
6018;DHT22;3037;51.068;13.780;2022-07-25T00:53:09;18.30;1.00
6018;DHT22;3037;51.068;13.780;2022-07-25T00:55:35;18.30;1.00
6018;DHT22;3037;51.068;13.780;2022-07-25T00:58:01;18.20;1.00
6018;DHT22;3037;51.068;13.780;2022-07-25T01:00:27;18.20;1.00
6018;DHT22;3037;51.068;13.780;2022-07-25T01:02:53;18.20;1.00
6018;DHT22;3037;51.068;13.780;2022-07-25T01:05:18;18.20;1.00
6018;DHT22;3037;51.068;13.780;2022-07-25T01:07:44;18.30;1.00
6018;DHT22;3037;51.068;13.780;2022-07-25T01:10:11;18.20;1.00
6018;DHT22;3037;51.068;13.780;2022-07-25T01:12:51;18.10;1.00
6018;DHT22;3037;51.068;13.780;2022-07-25T01:15:19;18.10;1.00
6018;DHT22;3037;51.068;13.780;2022-07-25T01:17:45;18.20;1.00
6018;DHT22;3037;51.068;13.780;2022-07-25T01:20:18;18.10;1.00
6018;DHT22;3037;51.068;13.780;2022-07-25T01:22:45;18.20;1.00
6018;DHT22;3037;51.068;13.780;2022-07-25T01:25:11;18.30;1.00
6018;DHT22;3037;51.068;13.780;2022-07-25T01:27:37;18.30;1.00
6018;DHT22;3037;51.068;13.780;2022-07-25T01:30:05;18.20;1.00
6018;DHT22;3037;51.068;13.780;2022-07-25T01:32:31;18.20;1.00
6018;DHT22;3037;51.068;13.780;2022-07-25T01:34:56;18.10;1.00
6018;DHT22;3037;51.068;13.780;2022-07-25T01:37:22;18.10;1.00
6018;DHT22;3037;51.068;13.780;2022-07-25T01:39:48;18.00;1.00
6018;DHT22;3037;51.068;13.780;2022-07-25T01:42:13;18.10;1.00
6018;DHT22;3037;51.068;13.780;2022-07-25T01:44:39;18.00;1.00
6018;DHT22;3037;51.068;13.780;2022-07-25T01:47:04;18.00;1.00
6018;DHT22;3037;51.068;13.780;2022-07-25T01:49:30;18.00;1.00
6018;DHT22;3037;51.068;13.780;2022-07-25T01:51:55;18.00;1.00
6018;DHT22;3037;51.068;13.780;2022-07-25T01:54:21;18.10;1.00
6018;DHT22;3037;51.068;13.780;2022-07-25T01:56:46;18.00;1.00
6018;DHT22;3037;51.068;13.780;2022-07-25T01:59:12;17.90;1.00
6018;DHT22;3037;51.068;13.780;2022-07-25T02:01:37;17.90;1.00
6018;DHT22;3037;51.068;13.780;2022-07-25T02:04:03;17.80;1.00
6018;DHT22;3037;51.068;13.780;2022-07-25T02:06:29;17.80;1.00
6018;DHT22;3037;51.068;13.780;2022-07-25T02:08:54;17.70;1.00
6018;DHT22;3037;51.068;13.780;2022-07-25T02:11:20;17.70;1.00
6018;DHT22;3037;51.068;13.780;2022-07-25T02:13:45;17.60;1.00
6018;DHT22;3037;51.068;13.780;2022-07-25T02:16:11;17.70;1.00
6018;DHT22;3037;51.068;13.780;2022-07-25T02:18:37;17.60;1.00
6018;DHT22;3037;51.068;13.780;2022-07-25T02:21:02;17.60;1.00
6018;DHT22;3037;51.068;13.780;2022-07-25T02:23:32;17.50;1.50
6018;DHT22;3037;51.068;13.780;2022-07-25T02:25:57;17.50;18.00
6018;DHT22;3037;51.068;13.780;2022-07-25T02:28:23;17.50;35.70
6018;DHT22;3037;51.068;13.780;2022-07-25T02:30:49;17.60;8.50
6018;DHT22;3037;51.068;13.780;2022-07-25T02:33:15;17.50;4.00
6018;DHT22;3037;51.068;13.780;2022-07-25T02:35:40;17.50;10.70
6018;DHT22;3037;51.068;13.780;2022-07-25T02:38:06;17.50;40.30
6018;DHT22;3037;51.068;13.780;2022-07-25T02:40:32;17.40;55.70
6018;DHT22;3037;51.068;13.780;2022-07-25T02:42:57;17.50;33.40
6018;DHT22;3037;51.068;13.780;2022-07-25T02:45:23;17.50;31.70
6018;DHT22;3037;51.068;13.780;2022-07-25T02:47:49;17.50;48.00
6018;DHT22;3037;51.068;13.780;2022-07-25T02:50:14;17.50;24.40
6018;DHT22;3037;51.068;13.780;2022-07-25T02:52:40;17.50;53.40
6018;DHT22;3037;51.068;13.780;2022-07-25T02:55:06;17.60;24.30
6018;DHT22;3037;51.068;13.780;2022-07-25T02:57:32;17.50;50.70
6018;DHT22;3037;51.068;13.780;2022-07-25T02:59:57;17.50;98.60
6018;DHT22;3037;51.068;13.780;2022-07-25T03:02:23;17.40;99.90
6018;DHT22;3037;51.068;13.780;2022-07-25T03:04:48;17.40;99.90
6018;DHT22;3037;51.068;13.780;2022-07-25T03:07:14;17.50;93.70
6018;DHT22;3037;51.068;13.780;2022-07-25T03:09:39;17.50;92.80
6018;DHT22;3037;51.068;13.780;2022-07-25T03:12:05;17.60;57.40
6018;DHT22;3037;51.068;13.780;2022-07-25T03:14:31;17.60;53.10
6018;DHT22;3037;51.068;13.780;2022-07-25T03:16:56;17.50;81.00
6018;DHT22;3037;51.068;13.780;2022-07-25T03:19:22;17.50;99.00
6018;DHT22;3037;51.068;13.780;2022-07-25T03:21:47;17.60;99.90
6018;DHT22;3037;51.068;13.780;2022-07-25T03:24:13;17.70;48.60
6018;DHT22;3037;51.068;13.780;2022-07-25T03:26:39;17.60;64.90
6018;DHT22;3037;51.068;13.780;2022-07-25T03:29:04;17.60;65.60
6018;DHT22;3037;51.068;13.780;2022-07-25T03:31:30;17.70;22.70
6018;DHT22;3037;51.068;13.780;2022-07-25T03:33:55;17.80;10.70
6018;DHT22;3037;51.068;13.780;2022-07-25T03:36:21;17.90;1.00
6018;DHT22;3037;51.068;13.780;2022-07-25T03:38:47;17.90;1.00
6018;DHT22;3037;51.068;13.780;2022-07-25T03:41:12;17.80;6.80
6018;DHT22;3037;51.068;13.780;2022-07-25T03:43:38;17.80;13.20
6018;DHT22;3037;51.068;13.780;2022-07-25T03:46:03;17.80;11.60
6018;DHT22;3037;51.068;13.780;2022-07-25T03:48:29;17.90;12.50
6018;DHT22;3037;51.068;13.780;2022-07-25T03:50:55;17.90;18.70
6018;DHT22;3037;51.068;13.780;2022-07-25T03:53:21;17.90;17.60
6018;DHT22;3037;51.068;13.780;2022-07-25T03:55:47;18.00;1.00
6018;DHT22;3037;51.068;13.780;2022-07-25T03:58:12;18.10;1.00
6018;DHT22;3037;51.068;13.780;2022-07-25T04:00:38;18.10;1.00
6018;DHT22;3037;51.068;13.780;2022-07-25T04:03:03;18.10;1.00
6018;DHT22;3037;51.068;13.780;2022-07-25T04:05:29;18.20;1.00
6018;DHT22;3037;51.068;13.780;2022-07-25T04:07:55;18.20;1.00
6018;DHT22;3037;51.068;13.780;2022-07-25T04:10:21;18.30;1.00
6018;DHT22;3037;51.068;13.780;2022-07-25T04:12:46;18.40;1.00
6018;DHT22;3037;51.068;13.780;2022-07-25T04:15:12;18.40;1.00
6018;DHT22;3037;51.068;13.780;2022-07-25T04:17:38;18.40;1.00
6018;DHT22;3037;51.068;13.780;2022-07-25T04:20:04;18.50;1.00
6018;DHT22;3037;51.068;13.780;2022-07-25T04:22:30;18.50;1.00
6018;DHT22;3037;51.068;13.780;2022-07-25T04:24:55;18.60;1.00
6018;DHT22;3037;51.068;13.780;2022-07-25T04:27:21;18.70;1.00
6018;DHT22;3037;51.068;13.780;2022-07-25T04:29:47;18.70;1.00
6018;DHT22;3037;51.068;13.780;2022-07-25T04:32:12;18.80;1.00
6018;DHT22;3037;51.068;13.780;2022-07-25T04:34:38;18.90;1.00
6018;DHT22;3037;51.068;13.780;2022-07-25T04:37:04;19.00;1.00
6018;DHT22;3037;51.068;13.780;2022-07-25T04:39:30;19.20;1.00
6018;DHT22;3037;51.068;13.780;2022-07-25T04:41:55;19.30;1.00
6018;DHT22;3037;51.068;13.780;2022-07-25T04:44:21;19.50;1.00
6018;DHT22;3037;51.068;13.780;2022-07-25T04:46:46;19.60;1.00
6018;DHT22;3037;51.068;13.780;2022-07-25T04:49:12;19.80;1.00
6018;DHT22;3037;51.068;13.780;2022-07-25T04:51:38;19.90;1.00
6018;DHT22;3037;51.068;13.780;2022-07-25T04:54:03;20.10;1.00
6018;DHT22;3037;51.068;13.780;2022-07-25T04:56:29;20.20;1.00
6018;DHT22;3037;51.068;13.780;2022-07-25T04:58:54;20.30;1.00
6018;DHT22;3037;51.068;13.780;2022-07-25T05:01:21;20.40;1.00
6018;DHT22;3037;51.068;13.780;2022-07-25T05:03:46;20.50;1.00
6018;DHT22;3037;51.068;13.780;2022-07-25T05:06:12;20.50;1.00
6018;DHT22;3037;51.068;13.780;2022-07-25T05:08:37;20.60;1.00
6018;DHT22;3037;51.068;13.780;2022-07-25T05:11:03;20.70;1.00
6018;DHT22;3037;51.068;13.780;2022-07-25T05:13:28;20.80;1.00
6018;DHT22;3037;51.068;13.780;2022-07-25T05:15:54;21.00;1.00
6018;DHT22;3037;51.068;13.780;2022-07-25T05:18:19;21.10;1.00
6018;DHT22;3037;51.068;13.780;2022-07-25T05:20:45;21.40;1.00
6018;DHT22;3037;51.068;13.780;2022-07-25T05:23:11;21.60;1.00
6018;DHT22;3037;51.068;13.780;2022-07-25T05:25:36;21.80;1.00
6018;DHT22;3037;51.068;13.780;2022-07-25T05:28:02;22.00;1.00
6018;DHT22;3037;51.068;13.780;2022-07-25T05:30:28;22.10;1.00
6018;DHT22;3037;51.068;13.780;2022-07-25T05:32:53;22.30;1.00
6018;DHT22;3037;51.068;13.780;2022-07-25T05:35:19;22.30;1.00
6018;DHT22;3037;51.068;13.780;2022-07-25T05:37:44;22.50;1.00
6018;DHT22;3037;51.068;13.780;2022-07-25T05:40:10;22.60;1.00
6018;DHT22;3037;51.068;13.780;2022-07-25T05:42:35;23.00;1.00
6018;DHT22;3037;51.068;13.780;2022-07-25T05:45:01;23.10;1.00
6018;DHT22;3037;51.068;13.780;2022-07-25T05:47:26;23.30;1.00
6018;DHT22;3037;51.068;13.780;2022-07-25T05:49:53;23.60;1.00
6018;DHT22;3037;51.068;13.780;2022-07-25T05:52:18;23.70;1.00
6018;DHT22;3037;51.068;13.780;2022-07-25T05:54:44;23.90;1.00
6018;DHT22;3037;51.068;13.780;2022-07-25T05:57:09;24.20;1.00
6018;DHT22;3037;51.068;13.780;2022-07-25T05:59:35;24.40;1.00
6018;DHT22;3037;51.068;13.780;2022-07-25T06:02:01;24.50;1.00
6018;DHT22;3037;51.068;13.780;2022-07-25T06:04:27;24.70;1.00
6018;DHT22;3037;51.068;13.780;2022-07-25T06:06:53;24.80;1.00
6018;DHT22;3037;51.068;13.780;2022-07-25T06:09:20;25.10;1.00
6018;DHT22;3037;51.068;13.780;2022-07-25T06:11:46;26.40;1.00
6018;DHT22;3037;51.068;13.780;2022-07-25T06:14:12;29.00;1.00
6018;DHT22;3037;51.068;13.780;2022-07-25T06:16:38;30.00;1.00
6018;DHT22;3037;51.068;13.780;2022-07-25T06:19:03;31.00;1.00
6018;DHT22;3037;51.068;13.780;2022-07-25T06:21:29;31.80;1.00
6018;DHT22;3037;51.068;13.780;2022-07-25T06:23:55;32.40;1.00
6018;DHT22;3037;51.068;13.780;2022-07-25T06:26:20;32.70;1.00
6018;DHT22;3037;51.068;13.780;2022-07-25T06:28:46;33.70;1.00
6018;DHT22;3037;51.068;13.780;2022-07-25T06:31:11;34.80;1.00
6018;DHT22;3037;51.068;13.780;2022-07-25T06:33:37;34.40;1.00
6018;DHT22;3037;51.068;13.780;2022-07-25T06:36:04;34.30;1.00
6018;DHT22;3037;51.068;13.780;2022-07-25T06:38:30;35.20;1.00
6018;DHT22;3037;51.068;13.780;2022-07-25T06:40:55;36.00;1.00
6018;DHT22;3037;51.068;13.780;2022-07-25T06:43:21;36.60;1.00
6018;DHT22;3037;51.068;13.780;2022-07-25T06:45:46;36.20;1.00
6018;DHT22;3037;51.068;13.780;2022-07-25T06:48:13;36.40;1.00
6018;DHT22;3037;51.068;13.780;2022-07-25T06:50:39;36.40;1.00
6018;DHT22;3037;51.068;13.780;2022-07-25T06:53:04;37.00;1.00
6018;DHT22;3037;51.068;13.780;2022-07-25T06:55:30;36.10;1.00
6018;DHT22;3037;51.068;13.780;2022-07-25T06:57:55;36.60;1.00
6018;DHT22;3037;51.068;13.780;2022-07-25T07:00:21;36.80;1.00
6018;DHT22;3037;51.068;13.780;2022-07-25T07:02:52;36.20;1.00
6018;DHT22;3037;51.068;13.780;2022-07-25T07:05:18;36.30;1.00
6018;DHT22;3037;51.068;13.780;2022-07-25T07:07:44;36.00;1.00
6018;DHT22;3037;51.068;13.780;2022-07-25T07:10:09;36.00;1.00
6018;DHT22;3037;51.068;13.780;2022-07-25T07:12:35;35.50;1.00
6018;DHT22;3037;51.068;13.780;2022-07-25T07:15:00;36.70;1.00
6018;DHT22;3037;51.068;13.780;2022-07-25T07:17:26;37.00;1.00
6018;DHT22;3037;51.068;13.780;2022-07-25T07:19:51;36.80;1.00
6018;DHT22;3037;51.068;13.780;2022-07-25T07:22:17;37.40;1.00
6018;DHT22;3037;51.068;13.780;2022-07-25T07:24:42;36.50;1.00
6018;DHT22;3037;51.068;13.780;2022-07-25T07:27:08;35.90;1.00
6018;DHT22;3037;51.068;13.780;2022-07-25T07:29:33;36.10;1.00
6018;DHT22;3037;51.068;13.780;2022-07-25T07:31:59;36.20;1.00
6018;DHT22;3037;51.068;13.780;2022-07-25T07:34:25;36.40;1.00
6018;DHT22;3037;51.068;13.780;2022-07-25T07:36:51;37.50;1.00
6018;DHT22;3037;51.068;13.780;2022-07-25T07:39:16;37.90;1.00
6018;DHT22;3037;51.068;13.780;2022-07-25T07:41:42;37.10;1.00
6018;DHT22;3037;51.068;13.780;2022-07-25T07:44:08;37.20;1.00
6018;DHT22;3037;51.068;13.780;2022-07-25T07:46:33;36.10;1.00
6018;DHT22;3037;51.068;13.780;2022-07-25T07:48:59;36.00;1.00
6018;DHT22;3037;51.068;13.780;2022-07-25T07:51:24;36.00;1.00
6018;DHT22;3037;51.068;13.780;2022-07-25T07:53:50;36.90;1.00
6018;DHT22;3037;51.068;13.780;2022-07-25T07:56:34;36.50;1.00
6018;DHT22;3037;51.068;13.780;2022-07-25T07:58:59;36.90;1.00
6018;DHT22;3037;51.068;13.780;2022-07-25T08:01:24;36.70;1.00
6018;DHT22;3037;51.068;13.780;2022-07-25T08:03:51;37.40;1.00
6018;DHT22;3037;51.068;13.780;2022-07-25T08:06:16;37.60;1.00
6018;DHT22;3037;51.068;13.780;2022-07-25T08:08:42;37.30;1.00
6018;DHT22;3037;51.068;13.780;2022-07-25T08:11:08;37.80;1.00
6018;DHT22;3037;51.068;13.780;2022-07-25T08:13:33;37.60;1.00
6018;DHT22;3037;51.068;13.780;2022-07-25T08:16:00;37.80;1.00
6018;DHT22;3037;51.068;13.780;2022-07-25T08:18:27;38.40;1.00
6018;DHT22;3037;51.068;13.780;2022-07-25T08:20:54;38.80;1.00
6018;DHT22;3037;51.068;13.780;2022-07-25T08:23:20;38.40;1.00
6018;DHT22;3037;51.068;13.780;2022-07-25T08:25:47;38.10;1.00
6018;DHT22;3037;51.068;13.780;2022-07-25T08:28:13;37.80;1.00
6018;DHT22;3037;51.068;13.780;2022-07-25T08:30:39;38.60;1.00
6018;DHT22;3037;51.068;13.780;2022-07-25T08:33:08;38.20;1.00
6018;DHT22;3037;51.068;13.780;2022-07-25T08:35:38;38.00;1.00
6018;DHT22;3037;51.068;13.780;2022-07-25T08:38:07;38.70;1.00
6018;DHT22;3037;51.068;13.780;2022-07-25T08:40:33;39.20;1.00
6018;DHT22;3037;51.068;13.780;2022-07-25T08:42:59;38.40;1.00
6018;DHT22;3037;51.068;13.780;2022-07-25T08:45:26;38.20;1.00
6018;DHT22;3037;51.068;13.780;2022-07-25T08:47:53;37.20;1.00
6018;DHT22;3037;51.068;13.780;2022-07-25T08:50:22;38.70;1.00
6018;DHT22;3037;51.068;13.780;2022-07-25T08:52:49;38.60;1.00
6018;DHT22;3037;51.068;13.780;2022-07-25T08:55:17;40.30;1.00
6018;DHT22;3037;51.068;13.780;2022-07-25T08:57:46;38.80;1.00
6018;DHT22;3037;51.068;13.780;2022-07-25T09:00:16;38.70;1.00
6018;DHT22;3037;51.068;13.780;2022-07-25T09:02:42;38.30;1.00
6018;DHT22;3037;51.068;13.780;2022-07-25T09:05:08;37.90;1.00
6018;DHT22;3037;51.068;13.780;2022-07-25T09:07:36;37.70;1.00
6018;DHT22;3037;51.068;13.780;2022-07-25T09:12:38;37.30;1.00
6018;DHT22;3037;51.068;13.780;2022-07-25T09:15:05;36.50;1.00
6018;DHT22;3037;51.068;13.780;2022-07-25T09:17:30;38.10;1.00
6018;DHT22;3037;51.068;13.780;2022-07-25T09:19:56;39.60;1.00
6018;DHT22;3037;51.068;13.780;2022-07-25T09:22:22;41.00;1.00
6018;DHT22;3037;51.068;13.780;2022-07-25T09:24:48;41.60;1.00
6018;DHT22;3037;51.068;13.780;2022-07-25T09:27:14;41.80;1.00
6018;DHT22;3037;51.068;13.780;2022-07-25T09:29:41;42.10;1.00
6018;DHT22;3037;51.068;13.780;2022-07-25T09:32:19;42.80;1.00
6018;DHT22;3037;51.068;13.780;2022-07-25T09:34:46;43.00;1.00
6018;DHT22;3037;51.068;13.780;2022-07-25T09:37:15;42.40;1.00
6018;DHT22;3037;51.068;13.780;2022-07-25T09:42:33;42.40;1.00
6018;DHT22;3037;51.068;13.780;2022-07-25T09:45:08;42.60;1.00
6018;DHT22;3037;51.068;13.780;2022-07-25T09:50:13;42.60;1.00
6018;DHT22;3037;51.068;13.780;2022-07-25T09:52:39;42.80;1.00
6018;DHT22;3037;51.068;13.780;2022-07-25T09:55:05;42.90;1.00
6018;DHT22;3037;51.068;13.780;2022-07-25T09:57:33;43.00;1.00
6018;DHT22;3037;51.068;13.780;2022-07-25T09:59:59;42.80;1.00
6018;DHT22;3037;51.068;13.780;2022-07-25T10:03:17;42.10;1.00
6018;DHT22;3037;51.068;13.780;2022-07-25T10:05:49;41.50;1.00
6018;DHT22;3037;51.068;13.780;2022-07-25T10:08:17;41.80;1.00
6018;DHT22;3037;51.068;13.780;2022-07-25T10:10:43;42.20;1.00
6018;DHT22;3037;51.068;13.780;2022-07-25T10:13:11;42.30;1.00
6018;DHT22;3037;51.068;13.780;2022-07-25T10:15:50;42.20;1.00
6018;DHT22;3037;51.068;13.780;2022-07-25T10:18:19;41.60;1.00
6018;DHT22;3037;51.068;13.780;2022-07-25T10:20:47;42.20;1.00
6018;DHT22;3037;51.068;13.780;2022-07-25T10:23:24;41.90;1.00
6018;DHT22;3037;51.068;13.780;2022-07-25T10:26:10;42.60;1.00
6018;DHT22;3037;51.068;13.780;2022-07-25T10:28:44;42.30;1.00
6018;DHT22;3037;51.068;13.780;2022-07-25T10:31:23;41.90;1.00
6018;DHT22;3037;51.068;13.780;2022-07-25T10:33:55;42.00;1.00
6018;DHT22;3037;51.068;13.780;2022-07-25T10:36:21;41.60;1.00
6018;DHT22;3037;51.068;13.780;2022-07-25T10:38:50;41.60;1.00
6018;DHT22;3037;51.068;13.780;2022-07-25T10:41:16;41.20;1.00
6018;DHT22;3037;51.068;13.780;2022-07-25T10:43:44;41.10;1.00
6018;DHT22;3037;51.068;13.780;2022-07-25T10:46:13;41.10;1.00
6018;DHT22;3037;51.068;13.780;2022-07-25T10:48:39;41.00;1.00
6018;DHT22;3037;51.068;13.780;2022-07-25T10:51:07;40.90;1.00
6018;DHT22;3037;51.068;13.780;2022-07-25T10:53:38;40.90;1.00
6018;DHT22;3037;51.068;13.780;2022-07-25T10:56:16;41.00;1.00
6018;DHT22;3037;51.068;13.780;2022-07-25T11:01:22;40.70;1.00
6018;DHT22;3037;51.068;13.780;2022-07-25T11:03:49;39.60;1.00
6018;DHT22;3037;51.068;13.780;2022-07-25T11:06:15;39.00;1.00
6018;DHT22;3037;51.068;13.780;2022-07-25T11:08:42;39.60;1.00
6018;DHT22;3037;51.068;13.780;2022-07-25T11:11:09;40.10;1.00
6018;DHT22;3037;51.068;13.780;2022-07-25T11:13:37;40.20;1.00
6018;DHT22;3037;51.068;13.780;2022-07-25T11:16:03;40.00;1.00
6018;DHT22;3037;51.068;13.780;2022-07-25T11:18:33;39.10;1.00
6018;DHT22;3037;51.068;13.780;2022-07-25T11:21:00;38.70;1.00
6018;DHT22;3037;51.068;13.780;2022-07-25T11:23:27;38.00;1.00
6018;DHT22;3037;51.068;13.780;2022-07-25T11:26:06;37.10;1.00
6018;DHT22;3037;51.068;13.780;2022-07-25T11:28:39;37.80;1.00
6018;DHT22;3037;51.068;13.780;2022-07-25T11:31:05;38.10;1.00
6018;DHT22;3037;51.068;13.780;2022-07-25T11:33:31;38.50;1.00
6018;DHT22;3037;51.068;13.780;2022-07-25T11:35:57;38.10;1.00
6018;DHT22;3037;51.068;13.780;2022-07-25T11:38:24;38.20;1.00
6018;DHT22;3037;51.068;13.780;2022-07-25T11:40:50;37.40;1.00
6018;DHT22;3037;51.068;13.780;2022-07-25T11:43:22;36.70;1.00
6018;DHT22;3037;51.068;13.780;2022-07-25T11:46:02;37.30;1.00
6018;DHT22;3037;51.068;13.780;2022-07-25T11:50:57;37.40;1.00
6018;DHT22;3037;51.068;13.780;2022-07-25T11:53:23;36.80;1.00
6018;DHT22;3037;51.068;13.780;2022-07-25T11:55:50;36.70;1.00
6018;DHT22;3037;51.068;13.780;2022-07-25T11:58:16;36.60;1.00
6018;DHT22;3037;51.068;13.780;2022-07-25T12:00:44;36.70;1.00
6018;DHT22;3037;51.068;13.780;2022-07-25T12:03:15;36.60;1.00
6018;DHT22;3037;51.068;13.780;2022-07-25T12:05:41;36.00;1.00
6018;DHT22;3037;51.068;13.780;2022-07-25T12:10:35;36.10;1.00
6018;DHT22;3037;51.068;13.780;2022-07-25T12:13:01;36.70;1.00
6018;DHT22;3037;51.068;13.780;2022-07-25T12:15:31;36.50;1.00
6018;DHT22;3037;51.068;13.780;2022-07-25T12:17:58;36.80;1.00
6018;DHT22;3037;51.068;13.780;2022-07-25T12:20:26;36.30;1.00
6018;DHT22;3037;51.068;13.780;2022-07-25T12:22:54;36.30;1.00
6018;DHT22;3037;51.068;13.780;2022-07-25T12:25:20;36.70;1.00
6018;DHT22;3037;51.068;13.780;2022-07-25T12:27:46;36.20;1.00
6018;DHT22;3037;51.068;13.780;2022-07-25T12:30:12;36.50;1.00
6018;DHT22;3037;51.068;13.780;2022-07-25T12:32:37;35.50;1.00
6018;DHT22;3037;51.068;13.780;2022-07-25T12:35:04;35.80;1.00
6018;DHT22;3037;51.068;13.780;2022-07-25T12:37:30;36.50;1.00
6018;DHT22;3037;51.068;13.780;2022-07-25T12:39:56;36.80;1.00
6018;DHT22;3037;51.068;13.780;2022-07-25T12:42:22;37.00;1.00
6018;DHT22;3037;51.068;13.780;2022-07-25T12:44:48;36.70;1.00
6018;DHT22;3037;51.068;13.780;2022-07-25T12:47:13;37.30;1.00
6018;DHT22;3037;51.068;13.780;2022-07-25T12:49:39;37.30;1.00
6018;DHT22;3037;51.068;13.780;2022-07-25T12:52:05;37.10;1.00
6018;DHT22;3037;51.068;13.780;2022-07-25T12:54:30;37.30;1.00
6018;DHT22;3037;51.068;13.780;2022-07-25T12:56:56;37.30;1.00
6018;DHT22;3037;51.068;13.780;2022-07-25T12:59:21;37.20;1.00
6018;DHT22;3037;51.068;13.780;2022-07-25T13:01:47;36.50;1.00
6018;DHT22;3037;51.068;13.780;2022-07-25T13:04:13;37.00;1.00
6018;DHT22;3037;51.068;13.780;2022-07-25T13:06:38;37.20;1.00
6018;DHT22;3037;51.068;13.780;2022-07-25T13:09:04;37.60;1.00
6018;DHT22;3037;51.068;13.780;2022-07-25T13:11:30;37.30;1.00
6018;DHT22;3037;51.068;13.780;2022-07-25T13:13:56;37.20;1.00
6018;DHT22;3037;51.068;13.780;2022-07-25T13:16:21;36.70;1.00
6018;DHT22;3037;51.068;13.780;2022-07-25T13:18:47;36.70;1.00
6018;DHT22;3037;51.068;13.780;2022-07-25T13:21:13;37.00;1.00
6018;DHT22;3037;51.068;13.780;2022-07-25T13:23:39;37.10;1.00
6018;DHT22;3037;51.068;13.780;2022-07-25T13:26:04;36.60;1.00
6018;DHT22;3037;51.068;13.780;2022-07-25T13:28:31;36.40;1.00
6018;DHT22;3037;51.068;13.780;2022-07-25T13:30:56;36.50;1.00
6018;DHT22;3037;51.068;13.780;2022-07-25T13:33:22;36.90;1.00
6018;DHT22;3037;51.068;13.780;2022-07-25T13:35:47;36.50;1.00
6018;DHT22;3037;51.068;13.780;2022-07-25T13:38:13;36.70;1.00
6018;DHT22;3037;51.068;13.780;2022-07-25T13:40:39;36.40;1.00
6018;DHT22;3037;51.068;13.780;2022-07-25T13:43:12;36.50;1.00
6018;DHT22;3037;51.068;13.780;2022-07-25T13:45:38;35.80;1.00
6018;DHT22;3037;51.068;13.780;2022-07-25T13:48:04;35.70;1.00
6018;DHT22;3037;51.068;13.780;2022-07-25T13:50:30;35.50;1.00
6018;DHT22;3037;51.068;13.780;2022-07-25T13:52:56;35.70;1.00
6018;DHT22;3037;51.068;13.780;2022-07-25T13:55:24;35.70;1.00
6018;DHT22;3037;51.068;13.780;2022-07-25T13:57:49;36.00;1.00
6018;DHT22;3037;51.068;13.780;2022-07-25T14:00:15;36.50;1.00
6018;DHT22;3037;51.068;13.780;2022-07-25T14:02:40;37.00;1.00
6018;DHT22;3037;51.068;13.780;2022-07-25T14:05:06;36.00;1.00
6018;DHT22;3037;51.068;13.780;2022-07-25T14:07:33;36.00;1.00
6018;DHT22;3037;51.068;13.780;2022-07-25T14:09:59;36.30;1.00
6018;DHT22;3037;51.068;13.780;2022-07-25T14:12:25;36.00;1.00
6018;DHT22;3037;51.068;13.780;2022-07-25T14:14:50;35.40;1.00
6018;DHT22;3037;51.068;13.780;2022-07-25T14:17:16;35.30;1.00
6018;DHT22;3037;51.068;13.780;2022-07-25T14:19:41;35.50;1.00
6018;DHT22;3037;51.068;13.780;2022-07-25T14:22:07;35.70;1.00
6018;DHT22;3037;51.068;13.780;2022-07-25T14:24:32;36.00;1.00
6018;DHT22;3037;51.068;13.780;2022-07-25T14:26:58;36.20;1.00
6018;DHT22;3037;51.068;13.780;2022-07-25T14:29:24;35.90;1.00
6018;DHT22;3037;51.068;13.780;2022-07-25T14:31:50;36.30;1.00
6018;DHT22;3037;51.068;13.780;2022-07-25T14:34:15;36.80;1.00
6018;DHT22;3037;51.068;13.780;2022-07-25T14:36:41;36.80;1.00
6018;DHT22;3037;51.068;13.780;2022-07-25T14:39:08;36.60;1.00
6018;DHT22;3037;51.068;13.780;2022-07-25T14:41:34;36.60;1.00
6018;DHT22;3037;51.068;13.780;2022-07-25T14:43:59;36.80;1.00
6018;DHT22;3037;51.068;13.780;2022-07-25T14:46:25;37.10;1.00
6018;DHT22;3037;51.068;13.780;2022-07-25T14:48:51;36.60;1.00
6018;DHT22;3037;51.068;13.780;2022-07-25T14:51:18;36.60;1.00
6018;DHT22;3037;51.068;13.780;2022-07-25T14:53:44;36.70;1.00
6018;DHT22;3037;51.068;13.780;2022-07-25T14:56:10;36.40;1.00
6018;DHT22;3037;51.068;13.780;2022-07-25T14:58:37;36.50;1.00
6018;DHT22;3037;51.068;13.780;2022-07-25T15:01:03;36.70;1.00
6018;DHT22;3037;51.068;13.780;2022-07-25T15:03:29;36.40;1.00
6018;DHT22;3037;51.068;13.780;2022-07-25T15:05:54;36.30;1.00
6018;DHT22;3037;51.068;13.780;2022-07-25T15:08:20;36.20;1.00
6018;DHT22;3037;51.068;13.780;2022-07-25T15:10:45;36.50;1.00
6018;DHT22;3037;51.068;13.780;2022-07-25T15:13:11;35.80;1.00
6018;DHT22;3037;51.068;13.780;2022-07-25T15:15:36;35.50;1.00
6018;DHT22;3037;51.068;13.780;2022-07-25T15:18:02;35.30;1.00
6018;DHT22;3037;51.068;13.780;2022-07-25T15:20:28;34.90;1.00
6018;DHT22;3037;51.068;13.780;2022-07-25T15:22:53;34.70;1.00
6018;DHT22;3037;51.068;13.780;2022-07-25T15:25:19;34.30;1.00
6018;DHT22;3037;51.068;13.780;2022-07-25T15:27:45;34.30;1.00
6018;DHT22;3037;51.068;13.780;2022-07-25T15:30:11;34.30;1.00
6018;DHT22;3037;51.068;13.780;2022-07-25T15:32:37;34.40;1.00
6018;DHT22;3037;51.068;13.780;2022-07-25T15:35:04;34.50;1.00
6018;DHT22;3037;51.068;13.780;2022-07-25T15:37:30;34.40;1.00
6018;DHT22;3037;51.068;13.780;2022-07-25T15:39:56;34.10;1.00
6018;DHT22;3037;51.068;13.780;2022-07-25T15:42:21;34.10;1.00
6018;DHT22;3037;51.068;13.780;2022-07-25T15:44:47;34.20;1.00
6018;DHT22;3037;51.068;13.780;2022-07-25T15:47:12;34.20;1.00
6018;DHT22;3037;51.068;13.780;2022-07-25T15:49:38;34.20;1.00
6018;DHT22;3037;51.068;13.780;2022-07-25T15:52:04;34.10;1.00
6018;DHT22;3037;51.068;13.780;2022-07-25T15:54:30;34.00;1.00
6018;DHT22;3037;51.068;13.780;2022-07-25T15:56:55;34.00;1.00
6018;DHT22;3037;51.068;13.780;2022-07-25T15:59:21;33.80;1.00
6018;DHT22;3037;51.068;13.780;2022-07-25T16:01:46;33.80;1.00
6018;DHT22;3037;51.068;13.780;2022-07-25T16:04:12;33.70;1.00
6018;DHT22;3037;51.068;13.780;2022-07-25T16:06:38;33.70;1.00
6018;DHT22;3037;51.068;13.780;2022-07-25T16:09:04;33.70;1.00
6018;DHT22;3037;51.068;13.780;2022-07-25T16:11:30;33.60;1.00